TAF KILM
KILM 072336Z 0800/0824 04007KT P6SM OVC024 FM081200 VRB03KT 5SM SHRA BR OVC020 FM081400 36005KT 3SM SHRA BR OVC007 WS020/22035KT FM081500 34006KT 1SM SHRA BR OVC005 FM081700 32007KT P6SM VCSH BKN007=
METAR KILM
WC KILM
WS KILM
WV KILM